sensor_id;sensor_type;location;lat;lon;timestamp;temperature;humidity
9941;DHT22;5009;50.656;7.188;2024-01-27T05:01:45;2.20;99.90
9941;DHT22;5009;50.656;7.188;2024-01-27T05:04:11;2.30;99.90
9941;DHT22;5009;50.656;7.188;2024-01-27T05:06:37;2.30;99.90
9941;DHT22;5009;50.656;7.188;2024-01-27T05:09:04;2.30;99.90
9941;DHT22;5009;50.656;7.188;2024-01-27T05:11:32;2.30;99.90
9941;DHT22;5009;50.656;7.188;2024-01-27T05:13:58;2.30;99.90
9941;DHT22;5009;50.656;7.188;2024-01-27T05:16:24;2.20;99.90
9941;DHT22;5009;50.656;7.188;2024-01-27T05:18:49;2.20;99.90
9941;DHT22;5009;50.656;7.188;2024-01-27T05:21:15;2.00;99.90
9941;DHT22;5009;50.656;7.188;2024-01-27T05:23:41;1.90;99.90
9941;DHT22;5009;50.656;7.188;2024-01-27T05:26:07;1.90;99.90
9941;DHT22;5009;50.656;7.188;2024-01-27T05:28:33;2.00;99.90
9941;DHT22;5009;50.656;7.188;2024-01-27T05:30:58;2.00;99.90
9941;DHT22;5009;50.656;7.188;2024-01-27T05:33:24;2.00;99.90
9941;DHT22;5009;50.656;7.188;2024-01-27T05:35:50;2.00;99.90
9941;DHT22;5009;50.656;7.188;2024-01-27T05:38:15;2.00;99.90
9941;DHT22;5009;50.656;7.188;2024-01-27T05:40:41;2.00;99.90
9941;DHT22;5009;50.656;7.188;2024-01-27T05:43:07;2.00;99.90
9941;DHT22;5009;50.656;7.188;2024-01-27T05:45:33;2.00;99.90
9941;DHT22;5009;50.656;7.188;2024-01-27T05:47:59;2.00;99.90
9941;DHT22;5009;50.656;7.188;2024-01-27T05:50:26;2.00;99.90
9941;DHT22;5009;50.656;7.188;2024-01-27T05:52:52;2.00;99.90
9941;DHT22;5009;50.656;7.188;2024-01-27T05:55:18;1.90;99.90
9941;DHT22;5009;50.656;7.188;2024-01-27T05:57:43;1.90;99.90
9941;DHT22;5009;50.656;7.188;2024-01-27T06:00:09;1.80;99.90
9941;DHT22;5009;50.656;7.188;2024-01-27T06:02:35;1.60;99.90
9941;DHT22;5009;50.656;7.188;2024-01-27T06:05:04;1.60;99.90
9941;DHT22;5009;50.656;7.188;2024-01-27T06:07:30;1.40;99.90
9941;DHT22;5009;50.656;7.188;2024-01-27T06:09:55;1.50;99.90
9941;DHT22;5009;50.656;7.188;2024-01-27T06:12:21;1.40;99.90
9941;DHT22;5009;50.656;7.188;2024-01-27T06:14:47;1.50;99.90
9941;DHT22;5009;50.656;7.188;2024-01-27T06:17:13;1.40;99.90
9941;DHT22;5009;50.656;7.188;2024-01-27T06:19:40;1.40;99.90
9941;DHT22;5009;50.656;7.188;2024-01-27T06:22:41;1.50;99.90
9941;DHT22;5009;50.656;7.188;2024-01-27T06:25:08;1.60;99.90
9941;DHT22;5009;50.656;7.188;2024-01-27T06:27:33;1.70;99.90
9941;DHT22;5009;50.656;7.188;2024-01-27T06:29:59;1.70;99.90
9941;DHT22;5009;50.656;7.188;2024-01-27T06:32:24;1.60;99.90
9941;DHT22;5009;50.656;7.188;2024-01-27T06:34:50;1.50;99.90
9941;DHT22;5009;50.656;7.188;2024-01-27T06:37:15;1.50;99.90
9941;DHT22;5009;50.656;7.188;2024-01-27T06:39:41;1.50;99.90
9941;DHT22;5009;50.656;7.188;2024-01-27T06:42:06;1.30;99.90
9941;DHT22;5009;50.656;7.188;2024-01-27T06:44:32;1.30;99.90
9941;DHT22;5009;50.656;7.188;2024-01-27T06:46:58;1.30;99.90
9941;DHT22;5009;50.656;7.188;2024-01-27T06:49:23;1.20;99.90
9941;DHT22;5009;50.656;7.188;2024-01-27T06:51:49;1.20;99.90
9941;DHT22;5009;50.656;7.188;2024-01-27T06:54:14;1.20;99.90
9941;DHT22;5009;50.656;7.188;2024-01-27T06:56:40;1.20;99.90
9941;DHT22;5009;50.656;7.188;2024-01-27T06:59:05;1.20;99.90
9941;DHT22;5009;50.656;7.188;2024-01-27T07:01:31;1.20;99.90
9941;DHT22;5009;50.656;7.188;2024-01-27T07:03:56;1.20;99.90
9941;DHT22;5009;50.656;7.188;2024-01-27T07:06:22;1.20;99.90
9941;DHT22;5009;50.656;7.188;2024-01-27T07:08:47;1.30;99.90
9941;DHT22;5009;50.656;7.188;2024-01-27T07:11:13;1.40;99.90
9941;DHT22;5009;50.656;7.188;2024-01-27T07:13:38;1.40;99.90
9941;DHT22;5009;50.656;7.188;2024-01-27T07:16:06;1.40;99.90
9941;DHT22;5009;50.656;7.188;2024-01-27T07:18:31;1.40;99.90
9941;DHT22;5009;50.656;7.188;2024-01-27T07:20:57;1.50;99.90
9941;DHT22;5009;50.656;7.188;2024-01-27T07:23:25;1.50;99.90
9941;DHT22;5009;50.656;7.188;2024-01-27T07:25:50;1.30;99.90
9941;DHT22;5009;50.656;7.188;2024-01-27T07:28:16;1.30;99.90
9941;DHT22;5009;50.656;7.188;2024-01-27T07:30:44;1.50;99.90
9941;DHT22;5009;50.656;7.188;2024-01-27T07:33:09;1.40;99.90
9941;DHT22;5009;50.656;7.188;2024-01-27T07:35:35;1.50;99.90
9941;DHT22;5009;50.656;7.188;2024-01-27T07:38:01;1.50;99.90
9941;DHT22;5009;50.656;7.188;2024-01-27T07:40:26;1.50;99.90
9941;DHT22;5009;50.656;7.188;2024-01-27T07:42:52;1.60;99.90
9941;DHT22;5009;50.656;7.188;2024-01-27T07:45:17;1.50;99.90
9941;DHT22;5009;50.656;7.188;2024-01-27T07:47:43;1.60;99.90
9941;DHT22;5009;50.656;7.188;2024-01-27T07:50:09;1.70;99.90
9941;DHT22;5009;50.656;7.188;2024-01-27T07:52:35;1.70;99.90
9941;DHT22;5009;50.656;7.188;2024-01-27T07:55:01;1.80;99.90
9941;DHT22;5009;50.656;7.188;2024-01-27T07:57:27;1.90;99.90
9941;DHT22;5009;50.656;7.188;2024-01-27T07:59:53;1.90;99.90
9941;DHT22;5009;50.656;7.188;2024-01-27T08:02:18;2.00;99.90
9941;DHT22;5009;50.656;7.188;2024-01-27T08:04:44;2.10;99.90
9941;DHT22;5009;50.656;7.188;2024-01-27T08:07:09;2.10;99.90
9941;DHT22;5009;50.656;7.188;2024-01-27T08:09:36;2.10;99.90
9941;DHT22;5009;50.656;7.188;2024-01-27T08:12:03;2.20;99.90
9941;DHT22;5009;50.656;7.188;2024-01-27T08:14:29;2.20;99.90
9941;DHT22;5009;50.656;7.188;2024-01-27T08:16:58;2.50;99.90
9941;DHT22;5009;50.656;7.188;2024-01-27T08:19:24;2.70;99.90
9941;DHT22;5009;50.656;7.188;2024-01-27T08:22:44;2.90;99.90
9941;DHT22;5009;50.656;7.188;2024-01-27T08:25:11;2.90;99.90
9941;DHT22;5009;50.656;7.188;2024-01-27T08:27:36;2.80;99.90
9941;DHT22;5009;50.656;7.188;2024-01-27T08:30:02;2.90;99.90
9941;DHT22;5009;50.656;7.188;2024-01-27T08:32:28;2.90;99.90
9941;DHT22;5009;50.656;7.188;2024-01-27T08:34:53;3.10;99.90
9941;DHT22;5009;50.656;7.188;2024-01-27T08:37:20;3.30;99.90
9941;DHT22;5009;50.656;7.188;2024-01-27T08:39:46;3.40;99.90
9941;DHT22;5009;50.656;7.188;2024-01-27T08:42:12;3.30;99.90
9941;DHT22;5009;50.656;7.188;2024-01-27T08:44:38;3.40;99.90
9941;DHT22;5009;50.656;7.188;2024-01-27T08:47:04;3.40;99.90
9941;DHT22;5009;50.656;7.188;2024-01-27T08:49:30;3.50;99.90
9941;DHT22;5009;50.656;7.188;2024-01-27T08:51:55;3.40;99.90
9941;DHT22;5009;50.656;7.188;2024-01-27T08:54:21;3.60;99.90
9941;DHT22;5009;50.656;7.188;2024-01-27T08:56:47;3.70;99.90
9941;DHT22;5009;50.656;7.188;2024-01-27T08:59:12;3.60;99.90
9941;DHT22;5009;50.656;7.188;2024-01-27T09:01:38;3.60;99.90
9941;DHT22;5009;50.656;7.188;2024-01-27T09:04:04;3.70;99.90
9941;DHT22;5009;50.656;7.188;2024-01-27T09:06:29;3.70;99.90
9941;DHT22;5009;50.656;7.188;2024-01-27T09:08:55;3.80;99.90
9941;DHT22;5009;50.656;7.188;2024-01-27T09:11:20;3.90;99.90
9941;DHT22;5009;50.656;7.188;2024-01-27T09:13:48;4.00;99.90
9941;DHT22;5009;50.656;7.188;2024-01-27T09:16:14;4.10;99.90
9941;DHT22;5009;50.656;7.188;2024-01-27T09:18:40;4.00;99.90
9941;DHT22;5009;50.656;7.188;2024-01-27T09:21:06;4.10;99.90
9941;DHT22;5009;50.656;7.188;2024-01-27T09:23:32;4.20;99.90
9941;DHT22;5009;50.656;7.188;2024-01-27T09:25:57;4.30;99.90
9941;DHT22;5009;50.656;7.188;2024-01-27T09:28:24;4.30;99.90
9941;DHT22;5009;50.656;7.188;2024-01-27T09:30:49;4.50;99.90
9941;DHT22;5009;50.656;7.188;2024-01-27T09:33:15;4.70;99.90
9941;DHT22;5009;50.656;7.188;2024-01-27T09:35:42;4.70;99.90
9941;DHT22;5009;50.656;7.188;2024-01-27T09:38:08;4.70;99.90
9941;DHT22;5009;50.656;7.188;2024-01-27T09:40:37;4.80;99.90
9941;DHT22;5009;50.656;7.188;2024-01-27T09:43:02;4.90;99.90
9941;DHT22;5009;50.656;7.188;2024-01-27T09:45:28;4.90;99.90
9941;DHT22;5009;50.656;7.188;2024-01-27T09:47:56;4.90;99.90
9941;DHT22;5009;50.656;7.188;2024-01-27T09:50:23;4.90;99.90
9941;DHT22;5009;50.656;7.188;2024-01-27T09:52:48;4.90;99.90
9941;DHT22;5009;50.656;7.188;2024-01-27T09:55:14;4.90;99.90
9941;DHT22;5009;50.656;7.188;2024-01-27T09:57:40;4.80;99.90
9941;DHT22;5009;50.656;7.188;2024-01-27T10:00:07;4.70;99.90
9941;DHT22;5009;50.656;7.188;2024-01-27T10:02:34;4.70;99.90
9941;DHT22;5009;50.656;7.188;2024-01-27T10:05:03;4.80;99.90
9941;DHT22;5009;50.656;7.188;2024-01-27T10:07:30;4.70;99.90
9941;DHT22;5009;50.656;7.188;2024-01-27T10:09:56;4.70;99.90
9941;DHT22;5009;50.656;7.188;2024-01-27T10:12:22;4.80;99.90
9941;DHT22;5009;50.656;7.188;2024-01-27T10:14:50;4.90;99.90
9941;DHT22;5009;50.656;7.188;2024-01-27T10:17:21;5.00;99.90
9941;DHT22;5009;50.656;7.188;2024-01-27T10:20:03;4.90;99.90
9941;DHT22;5009;50.656;7.188;2024-01-27T10:22:37;5.00;99.90
9941;DHT22;5009;50.656;7.188;2024-01-27T10:25:03;5.10;99.90
9941;DHT22;5009;50.656;7.188;2024-01-27T10:27:29;5.10;99.90
9941;DHT22;5009;50.656;7.188;2024-01-27T10:29:55;5.20;99.90
9941;DHT22;5009;50.656;7.188;2024-01-27T10:32:21;5.20;99.90
9941;DHT22;5009;50.656;7.188;2024-01-27T10:34:50;5.30;99.90
9941;DHT22;5009;50.656;7.188;2024-01-27T10:37:23;5.30;99.90
9941;DHT22;5009;50.656;7.188;2024-01-27T10:39:48;5.30;99.90
9941;DHT22;5009;50.656;7.188;2024-01-27T10:42:15;5.40;99.90
9941;DHT22;5009;50.656;7.188;2024-01-27T10:44:41;5.50;99.90
9941;DHT22;5009;50.656;7.188;2024-01-27T10:47:12;5.40;99.90
9941;DHT22;5009;50.656;7.188;2024-01-27T10:49:43;5.40;99.90
9941;DHT22;5009;50.656;7.188;2024-01-27T10:52:11;5.40;99.90
9941;DHT22;5009;50.656;7.188;2024-01-27T10:54:40;5.40;99.90
9941;DHT22;5009;50.656;7.188;2024-01-27T10:57:07;5.50;99.90
9941;DHT22;5009;50.656;7.188;2024-01-27T10:59:35;5.40;99.90
9941;DHT22;5009;50.656;7.188;2024-01-27T11:02:02;5.50;99.90
9941;DHT22;5009;50.656;7.188;2024-01-27T11:04:30;5.50;99.90
9941;DHT22;5009;50.656;7.188;2024-01-27T11:06:58;5.60;99.90
9941;DHT22;5009;50.656;7.188;2024-01-27T11:09:24;5.60;99.90
9941;DHT22;5009;50.656;7.188;2024-01-27T11:11:51;5.60;99.90
9941;DHT22;5009;50.656;7.188;2024-01-27T11:14:16;5.60;99.90
9941;DHT22;5009;50.656;7.188;2024-01-27T11:16:42;5.60;99.90
9941;DHT22;5009;50.656;7.188;2024-01-27T11:19:12;5.60;99.90
9941;DHT22;5009;50.656;7.188;2024-01-27T11:21:38;5.70;99.90
9941;DHT22;5009;50.656;7.188;2024-01-27T11:24:17;5.70;99.90
9941;DHT22;5009;50.656;7.188;2024-01-27T11:26:43;5.60;99.90
9941;DHT22;5009;50.656;7.188;2024-01-27T11:29:09;5.60;99.90
9941;DHT22;5009;50.656;7.188;2024-01-27T11:31:43;5.60;99.90
9941;DHT22;5009;50.656;7.188;2024-01-27T11:34:10;5.60;99.90
9941;DHT22;5009;50.656;7.188;2024-01-27T11:36:38;5.70;99.90
9941;DHT22;5009;50.656;7.188;2024-01-27T11:39:04;5.70;99.90
9941;DHT22;5009;50.656;7.188;2024-01-27T11:41:30;5.70;99.90
9941;DHT22;5009;50.656;7.188;2024-01-27T11:43:58;5.80;98.80
9941;DHT22;5009;50.656;7.188;2024-01-27T11:46:27;5.80;99.10
9941;DHT22;5009;50.656;7.188;2024-01-27T11:48:53;5.90;98.70
9941;DHT22;5009;50.656;7.188;2024-01-27T11:51:18;6.00;98.30
9941;DHT22;5009;50.656;7.188;2024-01-27T11:53:45;6.00;98.20
9941;DHT22;5009;50.656;7.188;2024-01-27T11:56:11;6.10;98.20
9941;DHT22;5009;50.656;7.188;2024-01-27T11:58:36;6.10;97.10
9941;DHT22;5009;50.656;7.188;2024-01-27T12:01:02;6.10;97.10
9941;DHT22;5009;50.656;7.188;2024-01-27T12:03:28;6.10;96.90
9941;DHT22;5009;50.656;7.188;2024-01-27T12:05:55;6.20;97.00
9941;DHT22;5009;50.656;7.188;2024-01-27T12:08:21;6.20;96.70
9941;DHT22;5009;50.656;7.188;2024-01-27T12:10:46;6.30;96.60
9941;DHT22;5009;50.656;7.188;2024-01-27T12:13:12;6.30;96.20
9941;DHT22;5009;50.656;7.188;2024-01-27T12:15:38;6.40;96.30
9941;DHT22;5009;50.656;7.188;2024-01-27T12:18:06;6.40;96.10
9941;DHT22;5009;50.656;7.188;2024-01-27T12:20:32;6.50;95.80
9941;DHT22;5009;50.656;7.188;2024-01-27T12:23:07;6.50;95.60
9941;DHT22;5009;50.656;7.188;2024-01-27T12:25:34;6.60;95.70
9941;DHT22;5009;50.656;7.188;2024-01-27T12:28:06;6.70;95.80
9941;DHT22;5009;50.656;7.188;2024-01-27T12:30:33;6.70;95.30
9941;DHT22;5009;50.656;7.188;2024-01-27T12:33:00;6.80;95.30
9941;DHT22;5009;50.656;7.188;2024-01-27T12:35:26;6.80;95.30
9941;DHT22;5009;50.656;7.188;2024-01-27T12:37:52;6.70;94.90
9941;DHT22;5009;50.656;7.188;2024-01-27T12:40:20;6.70;94.90
9941;DHT22;5009;50.656;7.188;2024-01-27T12:42:46;6.80;94.70
9941;DHT22;5009;50.656;7.188;2024-01-27T12:45:12;6.80;94.70
9941;DHT22;5009;50.656;7.188;2024-01-27T12:47:38;6.80;94.60
9941;DHT22;5009;50.656;7.188;2024-01-27T12:50:05;6.80;94.40
9941;DHT22;5009;50.656;7.188;2024-01-27T12:52:31;6.90;94.30
9941;DHT22;5009;50.656;7.188;2024-01-27T12:54:57;6.90;94.20
9941;DHT22;5009;50.656;7.188;2024-01-27T12:57:22;6.90;93.70
9941;DHT22;5009;50.656;7.188;2024-01-27T12:59:48;6.90;93.90
9941;DHT22;5009;50.656;7.188;2024-01-27T13:02:13;6.90;93.80
9941;DHT22;5009;50.656;7.188;2024-01-27T13:04:40;6.90;93.70
9941;DHT22;5009;50.656;7.188;2024-01-27T13:07:06;7.00;93.40
9941;DHT22;5009;50.656;7.188;2024-01-27T13:09:32;7.10;93.20
9941;DHT22;5009;50.656;7.188;2024-01-27T13:11:58;7.10;93.20
9941;DHT22;5009;50.656;7.188;2024-01-27T13:14:23;7.10;92.80
9941;DHT22;5009;50.656;7.188;2024-01-27T13:16:49;7.10;92.60
9941;DHT22;5009;50.656;7.188;2024-01-27T13:19:15;7.20;92.70
9941;DHT22;5009;50.656;7.188;2024-01-27T13:21:40;7.10;92.80
9941;DHT22;5009;50.656;7.188;2024-01-27T13:24:06;7.20;92.90
9941;DHT22;5009;50.656;7.188;2024-01-27T13:26:35;7.20;92.60
9941;DHT22;5009;50.656;7.188;2024-01-27T13:29:04;7.20;92.80
9941;DHT22;5009;50.656;7.188;2024-01-27T13:31:30;7.30;92.60
9941;DHT22;5009;50.656;7.188;2024-01-27T13:33:56;7.30;92.60
9941;DHT22;5009;50.656;7.188;2024-01-27T13:36:22;7.30;92.60
9941;DHT22;5009;50.656;7.188;2024-01-27T13:38:48;7.30;92.40
9941;DHT22;5009;50.656;7.188;2024-01-27T13:41:14;7.40;92.50
9941;DHT22;5009;50.656;7.188;2024-01-27T13:43:40;7.40;92.50
9941;DHT22;5009;50.656;7.188;2024-01-27T13:46:06;7.40;92.00
9941;DHT22;5009;50.656;7.188;2024-01-27T13:48:32;7.40;92.00
9941;DHT22;5009;50.656;7.188;2024-01-27T13:50:57;7.40;92.00
9941;DHT22;5009;50.656;7.188;2024-01-27T13:53:23;7.40;92.10
9941;DHT22;5009;50.656;7.188;2024-01-27T13:55:49;7.40;91.90
9941;DHT22;5009;50.656;7.188;2024-01-27T13:58:15;7.40;91.60
9941;DHT22;5009;50.656;7.188;2024-01-27T14:00:40;7.40;91.20
9941;DHT22;5009;50.656;7.188;2024-01-27T14:03:06;7.40;91.00
9941;DHT22;5009;50.656;7.188;2024-01-27T14:05:32;7.50;90.20
9941;DHT22;5009;50.656;7.188;2024-01-27T14:07:58;7.40;89.70
9941;DHT22;5009;50.656;7.188;2024-01-27T14:10:23;7.40;90.10
9941;DHT22;5009;50.656;7.188;2024-01-27T14:12:50;7.40;90.00
9941;DHT22;5009;50.656;7.188;2024-01-27T14:15:15;7.50;90.00
9941;DHT22;5009;50.656;7.188;2024-01-27T14:17:43;7.50;89.10
9941;DHT22;5009;50.656;7.188;2024-01-27T14:20:09;7.50;88.80
9941;DHT22;5009;50.656;7.188;2024-01-27T14:22:35;7.50;89.00
9941;DHT22;5009;50.656;7.188;2024-01-27T14:25:01;7.50;88.30
9941;DHT22;5009;50.656;7.188;2024-01-27T14:27:27;7.60;88.90
9941;DHT22;5009;50.656;7.188;2024-01-27T14:29:54;7.60;88.70
9941;DHT22;5009;50.656;7.188;2024-01-27T14:32:20;7.60;88.80
9941;DHT22;5009;50.656;7.188;2024-01-27T14:34:46;7.60;88.90
9941;DHT22;5009;50.656;7.188;2024-01-27T14:37:12;7.60;88.50
9941;DHT22;5009;50.656;7.188;2024-01-27T14:39:39;7.60;88.30
9941;DHT22;5009;50.656;7.188;2024-01-27T14:42:07;7.60;88.00
9941;DHT22;5009;50.656;7.188;2024-01-27T14:44:33;7.70;88.40
9941;DHT22;5009;50.656;7.188;2024-01-27T14:46:59;7.60;87.90
9941;DHT22;5009;50.656;7.188;2024-01-27T14:49:24;7.70;87.50
9941;DHT22;5009;50.656;7.188;2024-01-27T14:51:50;7.70;87.60
9941;DHT22;5009;50.656;7.188;2024-01-27T14:54:16;7.70;87.80
9941;DHT22;5009;50.656;7.188;2024-01-27T14:56:42;7.70;88.30
9941;DHT22;5009;50.656;7.188;2024-01-27T14:59:07;7.70;88.60
9941;DHT22;5009;50.656;7.188;2024-01-27T15:01:33;7.70;89.10
9941;DHT22;5009;50.656;7.188;2024-01-27T15:03:59;7.80;89.40
9941;DHT22;5009;50.656;7.188;2024-01-27T15:06:27;7.70;89.40
9941;DHT22;5009;50.656;7.188;2024-01-27T15:08:53;7.70;89.60
9941;DHT22;5009;50.656;7.188;2024-01-27T15:11:19;7.70;89.70
9941;DHT22;5009;50.656;7.188;2024-01-27T15:13:44;7.70;89.90
9941;DHT22;5009;50.656;7.188;2024-01-27T15:16:10;7.80;90.00
9941;DHT22;5009;50.656;7.188;2024-01-27T15:18:36;7.80;90.00
9941;DHT22;5009;50.656;7.188;2024-01-27T15:21:06;7.80;90.30
9941;DHT22;5009;50.656;7.188;2024-01-27T15:23:32;7.80;90.40
9941;DHT22;5009;50.656;7.188;2024-01-27T15:25:57;7.70;90.30
9941;DHT22;5009;50.656;7.188;2024-01-27T15:28:24;7.70;90.30
9941;DHT22;5009;50.656;7.188;2024-01-27T15:30:50;7.70;90.50
9941;DHT22;5009;50.656;7.188;2024-01-27T15:33:16;7.60;90.50
9941;DHT22;5009;50.656;7.188;2024-01-27T15:35:41;7.60;90.80
9941;DHT22;5009;50.656;7.188;2024-01-27T15:38:07;7.60;91.10
9941;DHT22;5009;50.656;7.188;2024-01-27T15:40:33;7.50;91.30
9941;DHT22;5009;50.656;7.188;2024-01-27T15:42:59;7.50;91.60
9941;DHT22;5009;50.656;7.188;2024-01-27T15:45:24;7.40;91.90
9941;DHT22;5009;50.656;7.188;2024-01-27T15:47:50;7.30;92.40
9941;DHT22;5009;50.656;7.188;2024-01-27T15:50:16;7.30;92.60
9941;DHT22;5009;50.656;7.188;2024-01-27T15:52:43;7.20;92.80
9941;DHT22;5009;50.656;7.188;2024-01-27T15:55:09;7.20;92.90
9941;DHT22;5009;50.656;7.188;2024-01-27T15:57:35;7.10;93.10
9941;DHT22;5009;50.656;7.188;2024-01-27T16:00:04;7.10;93.20
9941;DHT22;5009;50.656;7.188;2024-01-27T16:02:29;7.00;93.40
9941;DHT22;5009;50.656;7.188;2024-01-27T16:04:55;7.00;93.70
9941;DHT22;5009;50.656;7.188;2024-01-27T16:07:20;6.90;93.90
9941;DHT22;5009;50.656;7.188;2024-01-27T16:09:48;6.90;94.20
9941;DHT22;5009;50.656;7.188;2024-01-27T16:12:15;6.80;94.50
9941;DHT22;5009;50.656;7.188;2024-01-27T16:14:41;6.70;94.60
9941;DHT22;5009;50.656;7.188;2024-01-27T16:17:06;6.60;94.70
9941;DHT22;5009;50.656;7.188;2024-01-27T16:19:32;6.60;94.70
9941;DHT22;5009;50.656;7.188;2024-01-27T16:21:57;6.50;94.70
9941;DHT22;5009;50.656;7.188;2024-01-27T16:24:23;6.50;95.00
9941;DHT22;5009;50.656;7.188;2024-01-27T16:26:49;6.40;95.30
9941;DHT22;5009;50.656;7.188;2024-01-27T16:29:16;6.40;95.70
9941;DHT22;5009;50.656;7.188;2024-01-27T16:31:41;6.30;95.90
9941;DHT22;5009;50.656;7.188;2024-01-27T16:34:07;6.20;96.10
9941;DHT22;5009;50.656;7.188;2024-01-27T16:36:32;6.20;96.60
9941;DHT22;5009;50.656;7.188;2024-01-27T16:38:58;6.10;96.90
9941;DHT22;5009;50.656;7.188;2024-01-27T16:41:24;6.10;97.10
9941;DHT22;5009;50.656;7.188;2024-01-27T16:43:49;6.10;97.30
9941;DHT22;5009;50.656;7.188;2024-01-27T16:46:16;6.00;97.40
9941;DHT22;5009;50.656;7.188;2024-01-27T16:48:42;5.90;97.60
9941;DHT22;5009;50.656;7.188;2024-01-27T16:51:08;5.90;98.20
9941;DHT22;5009;50.656;7.188;2024-01-27T16:53:34;5.80;99.20
9941;DHT22;5009;50.656;7.188;2024-01-27T16:56:01;5.80;99.90
9941;DHT22;5009;50.656;7.188;2024-01-27T16:58:27;5.70;99.90
9941;DHT22;5009;50.656;7.188;2024-01-27T17:00:52;5.60;99.90
9941;DHT22;5009;50.656;7.188;2024-01-27T17:03:18;5.50;99.90
9941;DHT22;5009;50.656;7.188;2024-01-27T17:05:45;5.50;99.90
9941;DHT22;5009;50.656;7.188;2024-01-27T17:08:10;5.40;99.90
9941;DHT22;5009;50.656;7.188;2024-01-27T17:10:36;5.50;99.90
9941;DHT22;5009;50.656;7.188;2024-01-27T17:13:02;5.40;99.90
9941;DHT22;5009;50.656;7.188;2024-01-27T17:15:27;5.40;99.90
9941;DHT22;5009;50.656;7.188;2024-01-27T17:17:53;5.40;99.90
9941;DHT22;5009;50.656;7.188;2024-01-27T17:20:18;5.30;99.90
9941;DHT22;5009;50.656;7.188;2024-01-27T17:22:45;5.30;99.90
9941;DHT22;5009;50.656;7.188;2024-01-27T17:25:10;5.20;99.90
9941;DHT22;5009;50.656;7.188;2024-01-27T17:27:36;5.20;99.90
9941;DHT22;5009;50.656;7.188;2024-01-27T17:30:02;5.10;99.90
9941;DHT22;5009;50.656;7.188;2024-01-27T17:32:29;5.10;99.90
9941;DHT22;5009;50.656;7.188;2024-01-27T17:34:55;5.00;99.90
9941;DHT22;5009;50.656;7.188;2024-01-27T17:37:21;5.00;99.90
9941;DHT22;5009;50.656;7.188;2024-01-27T17:39:47;4.90;99.90
9941;DHT22;5009;50.656;7.188;2024-01-27T17:42:12;5.00;99.90
9941;DHT22;5009;50.656;7.188;2024-01-27T17:44:44;5.00;99.90
9941;DHT22;5009;50.656;7.188;2024-01-27T17:47:09;4.90;99.90
9941;DHT22;5009;50.656;7.188;2024-01-27T17:49:35;4.80;99.90
9941;DHT22;5009;50.656;7.188;2024-01-27T17:52:01;4.90;99.90
9941;DHT22;5009;50.656;7.188;2024-01-27T17:54:27;4.80;99.90
9941;DHT22;5009;50.656;7.188;2024-01-27T17:56:54;4.80;99.90
9941;DHT22;5009;50.656;7.188;2024-01-27T17:59:21;4.70;99.90
9941;DHT22;5009;50.656;7.188;2024-01-27T18:01:47;4.60;99.90
9941;DHT22;5009;50.656;7.188;2024-01-27T18:04:12;4.60;99.90
9941;DHT22;5009;50.656;7.188;2024-01-27T18:06:40;4.60;99.90
9941;DHT22;5009;50.656;7.188;2024-01-27T18:09:05;4.60;99.90
9941;DHT22;5009;50.656;7.188;2024-01-27T18:11:31;4.60;99.90
9941;DHT22;5009;50.656;7.188;2024-01-27T18:13:56;4.60;99.90
9941;DHT22;5009;50.656;7.188;2024-01-27T18:16:22;4.50;99.90
9941;DHT22;5009;50.656;7.188;2024-01-27T18:18:50;4.50;99.90
9941;DHT22;5009;50.656;7.188;2024-01-27T18:21:16;4.50;99.90
9941;DHT22;5009;50.656;7.188;2024-01-27T18:23:41;4.40;99.90
9941;DHT22;5009;50.656;7.188;2024-01-27T18:26:09;4.40;99.90
9941;DHT22;5009;50.656;7.188;2024-01-27T18:28:34;4.40;99.90
9941;DHT22;5009;50.656;7.188;2024-01-27T18:31:00;4.40;99.90
9941;DHT22;5009;50.656;7.188;2024-01-27T18:33:26;4.30;99.90
9941;DHT22;5009;50.656;7.188;2024-01-27T18:35:51;4.30;99.90
9941;DHT22;5009;50.656;7.188;2024-01-27T18:38:17;4.30;99.90
9941;DHT22;5009;50.656;7.188;2024-01-27T18:40:42;4.20;99.90
9941;DHT22;5009;50.656;7.188;2024-01-27T18:43:08;4.10;99.90
9941;DHT22;5009;50.656;7.188;2024-01-27T18:45:34;4.10;99.90
9941;DHT22;5009;50.656;7.188;2024-01-27T18:47:59;4.10;99.90
9941;DHT22;5009;50.656;7.188;2024-01-27T18:50:26;4.10;99.90
9941;DHT22;5009;50.656;7.188;2024-01-27T18:52:52;4.10;99.90
9941;DHT22;5009;50.656;7.188;2024-01-27T18:55:21;4.00;99.90
9941;DHT22;5009;50.656;7.188;2024-01-27T18:57:52;4.00;99.90
9941;DHT22;5009;50.656;7.188;2024-01-27T19:00:18;4.00;99.90
9941;DHT22;5009;50.656;7.188;2024-01-27T19:02:44;4.00;99.90
9941;DHT22;5009;50.656;7.188;2024-01-27T19:05:10;4.00;99.90
9941;DHT22;5009;50.656;7.188;2024-01-27T19:07:35;4.00;99.90
9941;DHT22;5009;50.656;7.188;2024-01-27T19:10:01;4.00;99.90
9941;DHT22;5009;50.656;7.188;2024-01-27T19:12:27;4.00;99.90
9941;DHT22;5009;50.656;7.188;2024-01-27T19:14:53;4.00;99.90
9941;DHT22;5009;50.656;7.188;2024-01-27T19:17:18;4.00;99.90
9941;DHT22;5009;50.656;7.188;2024-01-27T19:19:44;4.00;99.90
9941;DHT22;5009;50.656;7.188;2024-01-27T19:22:10;4.00;99.90
9941;DHT22;5009;50.656;7.188;2024-01-27T19:24:36;4.00;99.90
9941;DHT22;5009;50.656;7.188;2024-01-27T19:27:02;4.00;99.90
9941;DHT22;5009;50.656;7.188;2024-01-27T19:29:28;4.00;99.90
9941;DHT22;5009;50.656;7.188;2024-01-27T19:31:54;3.90;99.90
9941;DHT22;5009;50.656;7.188;2024-01-27T19:34:20;3.90;99.90
9941;DHT22;5009;50.656;7.188;2024-01-27T19:36:45;3.80;99.90
9941;DHT22;5009;50.656;7.188;2024-01-27T19:39:11;3.80;99.90
9941;DHT22;5009;50.656;7.188;2024-01-27T19:41:37;3.80;99.90
9941;DHT22;5009;50.656;7.188;2024-01-27T19:44:03;3.70;99.90
9941;DHT22;5009;50.656;7.188;2024-01-27T19:46:29;3.60;99.90
9941;DHT22;5009;50.656;7.188;2024-01-27T19:48:54;3.50;99.90
9941;DHT22;5009;50.656;7.188;2024-01-27T19:51:20;3.50;99.90
9941;DHT22;5009;50.656;7.188;2024-01-27T19:53:46;3.50;99.90
9941;DHT22;5009;50.656;7.188;2024-01-27T19:56:11;3.50;99.90
9941;DHT22;5009;50.656;7.188;2024-01-27T19:58:37;3.40;99.90
9941;DHT22;5009;50.656;7.188;2024-01-27T20:01:02;3.40;99.90
9941;DHT22;5009;50.656;7.188;2024-01-27T20:03:28;3.40;99.90
9941;DHT22;5009;50.656;7.188;2024-01-27T20:05:53;3.40;99.90
9941;DHT22;5009;50.656;7.188;2024-01-27T20:08:19;3.40;99.90
9941;DHT22;5009;50.656;7.188;2024-01-27T20:10:45;3.40;99.90
9941;DHT22;5009;50.656;7.188;2024-01-27T20:13:10;3.40;99.90
9941;DHT22;5009;50.656;7.188;2024-01-27T20:15:36;3.40;99.90
9941;DHT22;5009;50.656;7.188;2024-01-27T20:18:01;3.40;99.90
9941;DHT22;5009;50.656;7.188;2024-01-27T20:20:27;3.30;99.90
9941;DHT22;5009;50.656;7.188;2024-01-27T20:22:53;3.30;99.90
9941;DHT22;5009;50.656;7.188;2024-01-27T20:25:19;3.30;99.90
9941;DHT22;5009;50.656;7.188;2024-01-27T20:27:46;3.20;99.90
9941;DHT22;5009;50.656;7.188;2024-01-27T20:30:12;3.20;99.90
9941;DHT22;5009;50.656;7.188;2024-01-27T20:32:39;3.10;99.90
9941;DHT22;5009;50.656;7.188;2024-01-27T20:35:05;3.10;99.90
9941;DHT22;5009;50.656;7.188;2024-01-27T20:37:31;3.10;99.90
9941;DHT22;5009;50.656;7.188;2024-01-27T20:39:56;3.10;99.90
9941;DHT22;5009;50.656;7.188;2024-01-27T20:42:22;3.10;99.90
9941;DHT22;5009;50.656;7.188;2024-01-27T20:44:48;3.10;99.90
9941;DHT22;5009;50.656;7.188;2024-01-27T20:47:14;3.00;99.90
9941;DHT22;5009;50.656;7.188;2024-01-27T20:49:40;3.00;99.90
9941;DHT22;5009;50.656;7.188;2024-01-27T20:52:06;3.00;99.90
9941;DHT22;5009;50.656;7.188;2024-01-27T20:54:33;2.90;99.90
9941;DHT22;5009;50.656;7.188;2024-01-27T20:56:59;2.90;99.90
9941;DHT22;5009;50.656;7.188;2024-01-27T20:59:24;2.90;99.90
9941;DHT22;5009;50.656;7.188;2024-01-27T21:01:50;2.80;99.90
9941;DHT22;5009;50.656;7.188;2024-01-27T21:04:17;2.80;99.90
9941;DHT22;5009;50.656;7.188;2024-01-27T21:06:42;2.80;99.90
9941;DHT22;5009;50.656;7.188;2024-01-27T21:09:08;2.80;99.90
9941;DHT22;5009;50.656;7.188;2024-01-27T21:11:34;2.80;99.90